الصفحة الرئيسية
METAR-TAF:

METAR-TAF

مطار :

نيجنفارتوفسك, روسيا

دائرة عرض: 60-56N, خط طول: 076-29E, ارتفاع: 54 متر

مراقبة الطقس الحالي

تاريخ ووقت الإصدار 26 دقيقة قبل الساعة 22:30UTC
رياح هادئة
درجة الحرارة 10°درجة مئوية
الرطوبة 100%
ضغط 1013 hPa
الرؤية: 0100 متر
ضباب

METAR: USNN 242230Z 00000MPS 0100 R03/0600D FG VV001 10/10 Q1013 R03/0///65 NOSIG RMK QBB050 QFE756

زمن: 03:56 (22:56 UTC)

توقعات

تاريخ ووقت الإصدار 2ساعات و 56 دقيقة قبل الساعة 20:00UTC
التوقعات صالحة من24 الساعة 21 UTC إلى 25 الساعة 21 UTC
ريح 6 عقدة من الغرب
الرؤية 10 كم أو أكثر
غيوم متفرقة على ارتفاع 2000 قدم
مؤقت
من 24 الساعة 21 UTC إلى 25 الساعة 03 UTC
ريح 2 عقدةمن اتجاهات متغيرة
الرؤية: 0300 متر
على ارتفاع 200 قدم
ضباب
مؤقت
من 25 الساعة 03 UTC إلى 25 الساعة 06 UTC
الرؤية: 4000 متر
غيوم مفككة على ارتفاع 700 قدم
غشاء

TAF: USNN 242000Z 2421/2521 26003MPS 9999 SCT020 TEMPO 2421/2503 VRB01MPS 0300 FG VV002 TEMPO 2503/2506 4000 BR BKN007

أرصاد الطقس والتوقعات من أكثر من 4000 مطار (تقارير الطقس للمطار METAR والتنبؤ بالطقس بالمطارTAF).

المحطات المتاحة هي النقط الصفراء والحمراء على الخريطة.

حرك المؤشر فوق النقطة لمعرفة اسم المحطة.

ثم انقر لمعرفة أرصاد وتوقعات الطقس.

لتغيير الخارطة: اضغط على الأزرار الخضراء مع رمز الصليب الأسود للتكبير. على الزر الأخضر مع شرطة للتصغير، أو على الأسهم الخضراء للخرائط المجاورة.


METAR-TAF: